Terminal Aerodrome Forecast
Issued by NWS

Home | Current Version | Previous Version | Text Only | Print | Product List | Glossary On
Versions: 1 2 3 4 5 6 7 8 9 10 11 12 13 14 15 16 17 18 19 20 21
000
FTUS43 KBIS 280700 AAA
TAFJMS
TAF AMD
KJMS 280758Z 2808/2906 02009KT P6SM SCT015 OVC070
      TEMPO 2808/2811 -SN SCT008 BKN014
     FM281100 02007KT P6SM -SN OVC015
     FM281400 03007KT P6SM FEW011 BKN080
     FM281800 03009KT P6SM SCT090 SCT250
     FM290000 01006KT P6SM SCT250=

USA.gov is the U.S. government's official web portal to all federal, state and local government web resources and services.